Time;durP1;ratioP1;P1;durP2;ratioP2;P2;SDS_P1;SDS_P2;PMS_P1;PMS_P2;Temp;Humidity;BMP_temperature;BMP_pressure;BME280_temperature;BME280_humidity;BME280_pressure;Samples;Min_cycle;Max_cycle;Signal;HPM_P1;HPM_P2
2023/03/30 00:00:59;;;;;;;21.98;10.73;;;7.40;90.70;;;;;;5074436;28;20051;-70
2023/03/30 00:03:27;;;;;;;27.70;11.05;;;7.40;90.80;;;;;;5073331;28;20168;-70
2023/03/30 00:05:58;;;;;;;19.67;10.25;;;7.40;90.80;;;;;;5070562;28;20100;-70
2023/03/30 00:08:27;;;;;;;20.40;10.95;;;7.40;90.80;;;;;;5071117;28;20175;-70
2023/03/30 00:11:07;;;;;;;21.08;10.85;;;7.40;90.90;;;;;;5059522;28;20055;-70
2023/03/30 00:13:35;;;;;;;23.55;11.30;;;7.30;91.00;;;;;;5072752;28;20512;-70
2023/03/30 00:16:03;;;;;;;25.67;11.50;;;7.40;91.10;;;;;;5075767;28;20051;-70
2023/03/30 00:18:30;;;;;;;20.95;10.98;;;7.30;91.00;;;;;;5077816;28;20058;-70
2023/03/30 00:20:57;;;;;;;21.77;10.73;;;7.40;91.00;;;;;;5080521;28;20342;-70
2023/03/30 00:23:25;;;;;;;21.67;11.73;;;7.40;90.90;;;;;;5075986;28;20056;-70
2023/03/30 00:25:52;;;;;;;23.13;11.25;;;7.40;91.00;;;;;;5071771;28;20820;-70
2023/03/30 00:28:19;;;;;;;19.67;11.27;;;7.40;91.20;;;;;;5072123;28;20435;-70
2023/03/30 00:30:47;;;;;;;19.70;10.38;;;7.40;91.10;;;;;;5076104;28;20047;-70
2023/03/30 00:33:14;;;;;;;20.73;11.23;;;7.40;91.20;;;;;;5080433;28;20581;-70
2023/03/30 00:35:41;;;;;;;25.35;12.30;;;7.40;91.20;;;;;;5068964;28;20060;-70
2023/03/30 00:38:08;;;;;;;23.08;12.13;;;7.40;91.20;;;;;;5060599;28;20262;-70
2023/03/30 00:40:35;;;;;;;26.08;11.60;;;7.40;91.20;;;;;;5078827;28;20048;-70
2023/03/30 00:43:05;;;;;;;23.30;11.45;;;7.40;91.50;;;;;;5072737;28;20058;-70
2023/03/30 00:45:33;;;;;;;30.67;11.75;;;7.40;91.50;;;;;;5073040;28;20054;-70
2023/03/30 00:48:09;;;;;;;23.95;11.93;;;7.40;91.60;;;;;;5050046;28;20067;-70
2023/03/30 00:50:37;;;;;;;;;;;7.40;91.60;;;;;;5070946;28;20048;-70
2023/03/30 00:53:16;;;;;;;18.92;10.80;;;7.40;91.70;;;;;;5075775;28;19974;-70
2023/03/30 00:55:46;;;;;;;21.00;11.77;;;7.40;91.70;;;;;;5074070;28;20044;-70
2023/03/30 00:58:15;;;;;;;25.83;11.10;;;7.40;91.70;;;;;;5076622;28;20055;-70
2023/03/30 01:00:46;;;;;;;19.88;10.98;;;7.40;91.80;;;;;;5075716;28;20056;-70
2023/03/30 01:03:29;;;;;;;25.48;11.60;;;7.40;92.00;;;;;;5055222;28;20051;-70
2023/03/30 01:05:59;;;;;;;26.13;12.02;;;7.40;92.10;;;;;;5068569;28;20741;-72
2023/03/30 01:08:31;;;;;;;19.35;11.07;;;7.40;92.30;;;;;;5077937;28;20044;-73
2023/03/30 01:11:00;;;;;;;23.98;12.50;;;7.40;92.90;;;;;;5071750;28;20048;-73
2023/03/30 01:13:29;;;;;;;23.63;12.07;;;7.40;92.90;;;;;;5062901;28;20052;-73
2023/03/30 01:16:17;;;;;;;22.67;11.25;;;7.40;92.80;;;;;;5078736;28;20051;-73
2023/03/30 01:19:18;;;;;;;26.48;11.85;;;7.40;92.90;;;;;;5070482;28;20051;-73
2023/03/30 01:22:00;;;;;;;24.17;12.25;;;7.40;92.70;;;;;;5073176;28;20485;-73
2023/03/30 01:24:41;;;;;;;23.75;12.45;;;7.30;92.50;;;;;;5070767;28;20059;-73
2023/03/30 01:27:20;;;;;;;21.13;11.32;;;7.30;92.60;;;;;;5073835;28;20079;-73
2023/03/30 01:30:09;;;;;;;28.63;13.48;;;7.30;92.70;;;;;;5076588;28;20083;-73
2023/03/30 01:32:40;;;;;;;24.33;12.18;;;7.40;92.90;;;;;;5058945;28;20139;-73
2023/03/30 01:35:07;;;;;;;26.98;13.80;;;7.30;93.10;;;;;;5064240;28;20071;-73
2023/03/30 01:37:55;;;;;;;29.48;14.55;;;7.40;93.40;;;;;;5085356;28;20141;-73
2023/03/30 01:40:55;;;;;;;26.25;13.13;;;7.40;93.40;;;;;;5068822;28;20143;-73
2023/03/30 01:43:47;;;;;;;30.17;13.95;;;7.40;93.50;;;;;;5084934;28;20407;-73
2023/03/30 01:46:29;;;;;;;23.83;12.52;;;7.40;93.30;;;;;;5065231;28;21416;-73
2023/03/30 01:49:19;;;;;;;29.63;14.90;;;7.40;93.20;;;;;;5068766;28;20089;-73
2023/03/30 01:52:05;;;;;;;30.65;14.35;;;7.40;93.30;;;;;;5072254;28;20055;-73
2023/03/30 01:54:54;;;;;;;26.40;14.55;;;7.50;93.30;;;;;;5075599;28;20044;-73
2023/03/30 01:57:34;;;;;;;33.30;14.60;;;7.50;93.70;;;;;;5058509;28;20052;-73
2023/03/30 02:00:13;;;;;;;29.73;14.02;;;7.50;93.70;;;;;;5064998;28;20054;-73
2023/03/30 02:02:47;;;;;;;28.70;13.98;;;7.50;93.70;;;;;;5072738;28;20409;-73
2023/03/30 02:05:17;;;;;;;29.13;14.10;;;7.50;93.80;;;;;;5083169;28;20408;-73
2023/03/30 02:07:51;;;;;;;29.65;15.48;;;7.50;93.90;;;;;;5073020;28;20338;-73
2023/03/30 02:10:22;;;;;;;29.55;14.38;;;7.50;94.10;;;;;;5058643;28;20822;-73
2023/03/30 02:12:50;;;;;;;31.75;14.93;;;7.50;94.10;;;;;;5066812;28;20048;-73
2023/03/30 02:15:18;;;;;;;31.60;15.05;;;7.50;94.10;;;;;;5085507;28;20040;-73
2023/03/30 02:17:47;;;;;;;34.30;16.00;;;7.60;94.00;;;;;;5065841;28;20556;-73
2023/03/30 02:20:17;;;;;;;31.73;16.20;;;7.60;94.00;;;;;;5083702;28;20258;-73
2023/03/30 02:22:45;;;;;;;31.08;15.18;;;7.60;94.00;;;;;;5086311;28;20121;-73
2023/03/30 02:25:12;;;;;;;31.27;15.65;;;7.60;94.00;;;;;;5085605;28;20048;-73
2023/03/30 02:27:40;;;;;;;32.85;15.93;;;7.60;93.90;;;;;;5060949;28;20547;-73
2023/03/30 02:30:08;;;;;;;29.35;14.10;;;7.60;94.00;;;;;;5076414;28;20779;-73
2023/03/30 02:32:43;;;;;;;32.08;15.30;;;7.70;94.10;;;;;;5086021;28;20210;-73
2023/03/30 02:35:35;;;;;;;28.23;13.87;;;7.70;94.10;;;;;;5072587;28;20127;-73
2023/03/30 02:38:10;;;;;;;31.50;14.05;;;7.70;94.10;;;;;;5081980;28;20747;-73
2023/03/30 02:40:59;;;;;;;32.63;14.73;;;7.70;94.00;;;;;;5084572;28;20052;-73
2023/03/30 02:43:32;;;;;;;36.92;14.13;;;7.70;93.90;;;;;;5076001;28;20413;-73
2023/03/30 02:46:05;;;;;;;25.45;13.07;;;7.70;93.80;;;;;;5076704;28;20048;-73
2023/03/30 02:48:51;;;;;;;28.63;13.63;;;7.80;93.80;;;;;;5058084;28;20055;-73
2023/03/30 02:51:40;;;;;;;29.50;14.70;;;7.70;93.80;;;;;;5072060;28;20352;-73
2023/03/30 02:54:14;;;;;;;27.88;14.32;;;7.80;93.60;;;;;;5074487;28;20518;-73
2023/03/30 02:56:51;;;;;;;34.13;14.68;;;7.80;93.60;;;;;;5059547;28;20063;-73
2023/03/30 02:59:29;;;;;;;32.60;14.38;;;7.80;93.60;;;;;;5081481;28;20588;-73
2023/03/30 03:02:18;;;;;;;29.98;13.02;;;7.80;93.60;;;;;;5063098;28;20492;-73
2023/03/30 03:04:48;;;;;;;26.33;13.45;;;7.80;93.60;;;;;;5053895;28;20060;-73
2023/03/30 03:07:17;;;;;;;25.27;12.77;;;7.80;93.50;;;;;;5060138;28;20060;-73
2023/03/30 03:09:43;;;;;;;28.65;13.55;;;7.80;93.40;;;;;;5060130;28;20052;-73
2023/03/30 03:12:11;;;;;;;27.65;13.82;;;7.80;93.40;;;;;;5061901;28;20460;-73
2023/03/30 03:14:38;;;;;;;23.83;13.32;;;7.80;93.50;;;;;;5082256;28;20448;-73
2023/03/30 03:17:05;;;;;;;28.83;13.68;;;7.90;93.50;;;;;;5061165;28;20048;-73
2023/03/30 03:19:32;;;;;;;31.55;13.32;;;7.90;93.40;;;;;;5074099;28;20048;-73
2023/03/30 03:21:59;;;;;;;30.50;13.15;;;7.90;93.30;;;;;;5058966;28;20504;-73
2023/03/30 03:24:26;;;;;;;26.17;12.10;;;7.90;93.30;;;;;;5051873;28;20052;-73
2023/03/30 03:26:53;;;;;;;32.25;13.68;;;7.90;93.10;;;;;;5073619;28;20061;-73
2023/03/30 03:29:20;;;;;;;27.38;13.23;;;7.90;93.10;;;;;;5058038;28;20435;-73
2023/03/30 03:31:47;;;;;;;25.02;13.23;;;7.90;93.00;;;;;;5058412;28;20048;-73
2023/03/30 03:34:14;;;;;;;29.02;13.70;;;8.00;93.00;;;;;;5053756;28;20045;-73
2023/03/30 03:36:42;;;;;;;28.25;13.13;;;8.00;92.90;;;;;;5062848;28;20396;-73
2023/03/30 03:39:09;;;;;;;23.75;13.30;;;8.00;92.60;;;;;;5069307;28;20048;-73
2023/03/30 03:41:36;;;;;;;29.13;13.73;;;8.00;92.70;;;;;;5059857;28;20507;-73
2023/03/30 03:44:02;;;;;;;24.40;12.32;;;8.00;92.50;;;;;;5075379;28;20043;-72
2023/03/30 03:46:29;;;;;;;25.40;13.93;;;8.00;92.60;;;;;;5073125;28;20052;-72
2023/03/30 03:48:56;;;;;;;27.98;14.57;;;8.00;92.60;;;;;;5056991;28;20051;-72
2023/03/30 03:51:23;;;;;;;26.40;13.60;;;8.00;92.60;;;;;;5064775;28;20048;-72
2023/03/30 03:53:50;;;;;;;25.55;12.80;;;8.00;92.50;;;;;;5068761;28;20052;-72
2023/03/30 03:56:17;;;;;;;26.63;13.52;;;8.00;92.70;;;;;;5060832;28;20655;-72
2023/03/30 03:58:43;;;;;;;29.45;13.55;;;8.00;92.70;;;;;;5075468;28;20063;-72
2023/03/30 04:01:13;;;;;;;23.67;12.40;;;8.00;92.60;;;;;;5080076;28;20056;-72
2023/03/30 04:03:40;;;;;;;29.02;12.32;;;8.00;92.80;;;;;;5077152;28;20048;-72
2023/03/30 04:06:07;;;;;;;30.33;13.60;;;8.00;92.70;;;;;;5071612;28;20057;-72
2023/03/30 04:08:35;;;;;;;26.27;13.35;;;8.00;92.90;;;;;;5072248;28;20071;-72
2023/03/30 04:11:10;;;;;;;24.38;13.27;;;8.00;93.50;;;;;;5073800;28;20761;-72
2023/03/30 04:13:39;;;;;;;26.25;12.70;;;8.00;94.00;;;;;;5073540;28;20476;-73
2023/03/30 04:16:06;;;;;;;28.77;13.32;;;8.00;94.60;;;;;;5053708;28;20049;-73
2023/03/30 04:18:34;;;;;;;26.20;12.10;;;7.90;95.00;;;;;;5082248;28;20059;-73
2023/03/30 04:21:03;;;;;;;26.33;13.32;;;7.90;95.40;;;;;;5088856;22;20522;-72
2023/03/30 04:23:32;;;;;;;26.95;11.95;;;7.90;96.00;;;;;;5078128;28;20052;-72
2023/03/30 04:26:01;;;;;;;30.17;13.02;;;7.80;96.20;;;;;;5074711;28;20506;-72
2023/03/30 04:28:31;;;;;;;27.45;13.52;;;7.70;96.60;;;;;;5077714;28;20048;-72
2023/03/30 04:31:09;;;;;;;30.38;12.45;;;7.70;96.90;;;;;;5077918;28;20267;-72
2023/03/30 04:33:43;;;;;;;24.92;13.27;;;7.70;97.20;;;;;;5078721;28;20058;-72
2023/03/30 04:38:57;;;;;;;29.85;13.35;;;7.60;97.60;;;;;;4980164;28;20479;-72
2023/03/30 04:41:28;;;;;;;27.75;13.60;;;7.60;98.00;;;;;;4982532;28;20050;-73
2023/03/30 04:43:55;;;;;;;27.42;12.95;;;7.60;98.20;;;;;;4982943;28;20467;-73
2023/03/30 04:46:22;;;;;;;22.00;11.75;;;7.50;98.50;;;;;;4969425;28;20395;-73
2023/03/30 04:48:49;;;;;;;24.52;11.35;;;7.50;98.50;;;;;;4995669;28;20133;-73
2023/03/30 04:51:15;;;;;;;28.35;13.02;;;7.50;98.70;;;;;;4979157;28;20105;-73
2023/03/30 04:53:42;;;;;;;27.42;13.75;;;7.50;98.80;;;;;;4982189;28;20450;-73
2023/03/30 04:56:10;;;;;;;29.15;12.48;;;7.50;98.80;;;;;;4981806;28;20056;-74
2023/03/30 04:58:37;;;;;;;26.88;12.95;;;7.40;98.90;;;;;;4981761;28;20053;-73
2023/03/30 05:01:04;;;;;;;29.02;12.65;;;7.40;99.10;;;;;;4977025;28;20053;-74
2023/03/30 05:03:31;;;;;;;27.83;13.23;;;7.40;99.20;;;;;;4961170;28;20483;-77
2023/03/30 05:05:58;;;;;;;25.90;12.15;;;7.40;99.40;;;;;;4962760;28;20680;-76
2023/03/30 05:08:25;;;;;;;30.05;13.07;;;7.40;99.40;;;;;;4982786;28;20483;-76
2023/03/30 05:10:52;;;;;;;31.00;13.60;;;7.40;99.50;;;;;;4983951;28;20490;-75
2023/03/30 05:13:19;;;;;;;30.98;13.43;;;7.40;99.60;;;;;;4963657;28;20459;-74
2023/03/30 05:15:52;;;;;;;32.88;14.75;;;7.40;99.70;;;;;;4979678;28;20054;-74
2023/03/30 05:18:19;;;;;;;31.75;13.15;;;7.50;99.90;;;;;;4982808;28;20058;-74
2023/03/30 05:20:47;;;;;;;31.55;13.63;;;7.50;100.00;;;;;;4977783;28;20054;-77
2023/03/30 05:23:13;;;;;;;37.60;14.05;;;7.60;100.00;;;;;;4975734;28;20072;-76
2023/03/30 05:25:45;;;;;;;29.30;13.75;;;7.60;100.00;;;;;;4980813;28;20137;-76
2023/03/30 05:28:12;;;;;;;29.75;13.50;;;7.60;100.00;;;;;;4962887;28;20472;-76
2023/03/30 05:30:39;;;;;;;31.63;14.93;;;7.60;100.00;;;;;;4961231;28;20407;-77
2023/03/30 05:33:08;;;;;;;32.88;14.00;;;7.70;99.90;;;;;;4981257;28;20518;-74
2023/03/30 05:35:36;;;;;;;25.08;13.23;;;7.70;99.90;;;;;;4981104;28;20046;-73
2023/03/30 05:38:03;;;;;;;33.70;12.95;;;7.70;99.80;;;;;;4978590;28;20116;-74
2023/03/30 05:40:30;;;;;;;24.73;13.88;;;7.70;99.80;;;;;;4962528;28;20783;-73
2023/03/30 05:42:57;;;;;;;25.42;12.85;;;7.80;99.60;;;;;;4963902;28;21006;-74
2023/03/30 05:45:24;;;;;;;31.45;12.77;;;7.80;99.40;;;;;;4982305;28;20061;-74
2023/03/30 05:47:53;;;;;;;26.52;13.90;;;7.80;99.20;;;;;;4964352;28;20353;-74
2023/03/30 05:50:20;;;;;;;27.48;13.50;;;7.90;99.30;;;;;;4983343;28;20081;-74
2023/03/30 05:52:48;;;;;;;28.55;13.10;;;7.90;99.30;;;;;;4979437;28;20502;-74
2023/03/30 05:55:15;;;;;;;27.65;13.52;;;7.90;99.50;;;;;;4982641;28;20054;-74
2023/03/30 05:57:42;;;;;;;26.55;12.65;;;8.00;99.60;;;;;;4982271;28;20367;-74
2023/03/30 06:00:11;;;;;;;27.75;14.07;;;8.00;99.50;;;;;;4982549;28;20054;-74
2023/03/30 06:02:38;;;;;;;28.50;13.52;;;8.10;100.00;;;;;;4982187;28;20434;-74
2023/03/30 06:05:07;;;;;;;26.15;12.52;;;8.20;99.80;;;;;;4963875;28;20057;-74
2023/03/30 06:07:34;;;;;;;22.70;12.60;;;8.30;99.40;;;;;;4981400;28;20065;-74
2023/03/30 06:10:01;;;;;;;30.05;14.50;;;8.40;98.90;;;;;;4981578;28;20050;-74
2023/03/30 06:12:27;;;;;;;27.55;13.90;;;8.40;98.70;;;;;;4982019;28;20054;-74
2023/03/30 06:14:54;;;;;;;24.42;12.93;;;8.50;98.40;;;;;;4982318;28;20562;-74
2023/03/30 06:17:21;;;;;;;21.17;12.48;;;8.60;97.90;;;;;;4973369;28;20058;-74
2023/03/30 06:19:48;;;;;;;28.00;13.10;;;8.60;97.70;;;;;;4985511;28;20054;-73
2023/03/30 06:22:15;;;;;;;26.83;12.93;;;8.70;98.00;;;;;;4985931;28;20479;-73
2023/03/30 06:24:41;;;;;;;31.55;12.70;;;8.80;96.80;;;;;;4985020;28;20695;-74
2023/03/30 06:27:08;;;;;;;22.25;12.15;;;8.90;96.30;;;;;;4972024;28;20058;-74
2023/03/30 06:29:35;;;;;;;26.13;12.93;;;9.00;96.20;;;;;;4986538;28;20050;-74
2023/03/30 06:32:02;;;;;;;27.20;11.75;;;9.00;96.20;;;;;;4985031;28;20050;-74
2023/03/30 06:34:29;;;;;;;24.00;11.75;;;9.00;95.00;;;;;;4985849;28;20105;-74
2023/03/30 06:36:57;;;;;;;22.75;11.73;;;9.10;95.20;;;;;;4983521;28;20479;-74
2023/03/30 06:39:24;;;;;;;21.58;11.23;;;9.10;94.80;;;;;;4985114;28;21233;-74
2023/03/30 06:41:51;;;;;;;24.60;11.10;;;9.10;94.90;;;;;;4969213;28;20447;-74
2023/03/30 06:44:18;;;;;;;20.80;11.07;;;9.10;94.70;;;;;;4984694;28;20046;-74
2023/03/30 06:46:45;;;;;;;21.50;10.43;;;9.10;94.70;;;;;;4984040;28;20566;-74
2023/03/30 06:49:12;;;;;;;22.77;10.98;;;9.20;94.80;;;;;;4984985;28;20046;-74
2023/03/30 06:51:40;;;;;;;26.35;10.27;;;9.20;94.80;;;;;;4985239;28;20053;-74
2023/03/30 06:54:08;;;;;;;19.60;10.25;;;9.30;94.80;;;;;;4993909;28;20077;-74
2023/03/30 06:56:34;;;;;;;23.92;10.35;;;9.30;93.90;;;;;;4983690;28;20050;-74
2023/03/30 06:59:01;;;;;;;18.63;9.52;;;9.40;94.20;;;;;;4982684;28;20054;-74
2023/03/30 07:01:28;;;;;;;19.25;10.38;;;9.40;93.70;;;;;;4989090;28;20141;-74
2023/03/30 07:03:56;;;;;;;21.75;10.10;;;9.40;93.60;;;;;;4985721;28;20251;-74
2023/03/30 07:06:23;;;;;;;19.50;9.38;;;9.40;93.20;;;;;;4986526;28;20235;-74
2023/03/30 07:08:50;;;;;;;16.70;9.20;;;9.40;93.20;;;;;;4982055;28;20137;-74
2023/03/30 07:11:17;;;;;;;19.98;10.02;;;9.40;92.70;;;;;;4984710;28;20538;-74
2023/03/30 07:13:44;;;;;;;21.20;10.85;;;9.40;93.10;;;;;;4983523;28;20054;-74
2023/03/30 07:16:10;;;;;;;17.83;9.82;;;9.50;93.30;;;;;;4984580;28;20169;-72
2023/03/30 07:18:37;;;;;;;16.88;9.02;;;9.50;93.50;;;;;;4984064;28;20058;-72
2023/03/30 07:21:04;;;;;;;17.85;9.77;;;9.50;93.50;;;;;;4983781;28;20274;-72
2023/03/30 07:23:32;;;;;;;15.25;9.50;;;9.60;93.10;;;;;;4983980;28;20051;-72
2023/03/30 07:25:59;;;;;;;22.10;9.68;;;9.60;93.40;;;;;;4999534;28;20061;-72
2023/03/30 07:28:26;;;;;;;18.05;9.38;;;9.70;93.30;;;;;;4968586;28;20528;-72
2023/03/30 07:30:53;;;;;;;19.55;9.80;;;9.70;93.00;;;;;;4969422;28;20143;-72
2023/03/30 07:33:20;;;;;;;19.80;9.80;;;9.80;93.60;;;;;;4983486;28;20506;-72
2023/03/30 07:35:48;;;;;;;17.17;9.18;;;9.90;92.30;;;;;;4984444;28;20422;-72
2023/03/30 07:38:16;;;;;;;20.70;10.60;;;10.00;92.50;;;;;;4977352;28;20116;-72
2023/03/30 07:40:43;;;;;;;16.83;9.45;;;10.10;92.60;;;;;;4985120;28;20108;-72
2023/03/30 07:43:09;;;;;;;19.92;9.68;;;10.30;91.90;;;;;;4984305;28;20487;-72
2023/03/30 07:45:36;;;;;;;19.30;9.10;;;10.30;91.20;;;;;;4983737;28;20061;-73
2023/03/30 07:48:03;;;;;;;15.48;8.63;;;10.40;91.10;;;;;;4961447;28;20051;-73
2023/03/30 07:50:30;;;;;;;19.95;9.10;;;10.50;90.60;;;;;;4971149;28;20049;-72
2023/03/30 07:52:57;;;;;;;20.17;8.85;;;10.50;89.70;;;;;;4984744;28;20484;-72
2023/03/30 07:55:24;;;;;;;16.75;8.07;;;10.50;90.30;;;;;;4984487;28;20054;-72
2023/03/30 07:57:51;;;;;;;21.95;8.32;;;10.40;89.40;;;;;;4985649;28;20070;-73
2023/03/30 08:00:20;;;;;;;19.83;8.93;;;10.40;89.60;;;;;;4985797;28;20050;-72
2023/03/30 08:02:47;;;;;;;16.13;9.15;;;10.40;89.20;;;;;;4967274;28;20062;-73
2023/03/30 08:05:16;;;;;;;19.10;8.15;;;10.50;90.30;;;;;;4984037;28;20582;-73
2023/03/30 08:07:44;;;;;;;14.30;7.20;;;10.50;91.00;;;;;;4980550;28;20061;-72
2023/03/30 08:10:11;;;;;;;14.57;8.20;;;10.60;90.00;;;;;;4982514;28;20050;-72
2023/03/30 08:12:38;;;;;;;17.23;7.82;;;10.60;89.70;;;;;;4987016;28;20427;-72
2023/03/30 08:15:06;;;;;;;16.23;8.00;;;10.70;89.90;;;;;;4982619;28;20576;-72
2023/03/30 08:17:33;;;;;;;14.90;8.55;;;10.80;91.20;;;;;;4980667;28;20100;-72
2023/03/30 08:20:00;;;;;;;16.90;8.98;;;11.00;90.50;;;;;;4984032;28;20081;-72
2023/03/30 08:22:27;;;;;;;18.83;8.98;;;11.00;89.90;;;;;;4983879;28;20054;-73
2023/03/30 08:24:54;;;;;;;18.17;8.07;;;10.90;90.50;;;;;;4983095;28;20531;-72
2023/03/30 08:27:20;;;;;;;14.15;8.25;;;10.90;91.10;;;;;;4967545;28;20058;-72
2023/03/30 08:29:47;;;;;;;16.27;8.32;;;10.90;90.50;;;;;;4982551;28;20185;-72
2023/03/30 08:32:15;;;;;;;20.42;8.20;;;10.90;90.00;;;;;;4983680;28;20046;-72
2023/03/30 08:34:41;;;;;;;15.30;8.40;;;10.90;90.70;;;;;;4983320;28;20057;-73
2023/03/30 08:37:08;;;;;;;16.67;7.78;;;11.00;90.20;;;;;;4982795;28;20407;-72
2023/03/30 08:39:36;;;;;;;13.70;7.65;;;11.00;90.20;;;;;;4965192;28;20571;-72
2023/03/30 08:42:15;;;;;;;17.52;8.18;;;11.20;90.80;;;;;;4975445;28;20046;-72
2023/03/30 08:44:44;;;;;;;16.75;7.43;;;11.50;89.00;;;;;;4969009;28;20170;-72
2023/03/30 08:47:17;;;;;;;12.27;7.25;;;11.60;87.60;;;;;;4982920;28;20046;-72
2023/03/30 08:49:52;;;;;;;15.18;8.30;;;11.60;88.60;;;;;;4980916;28;20055;-72
2023/03/30 08:52:21;;;;;;;;;;;11.60;86.70;;;;;;4982413;28;20057;-72
2023/03/30 08:54:50;;;;;;;14.73;7.47;;;11.60;86.90;;;;;;4983195;28;19926;-73
2023/03/30 08:57:59;;;;;;;16.67;7.28;;;11.60;86.50;;;;;;4985190;28;20488;-72
2023/03/30 09:00:48;;;;;;;15.77;7.53;;;11.70;87.00;;;;;;4973312;28;20054;-72
2023/03/30 09:03:26;;;;;;;16.00;8.13;;;11.80;86.20;;;;;;4975735;28;20069;-72
2023/03/30 09:05:59;;;;;;;13.93;7.85;;;12.10;86.90;;;;;;4981470;28;20046;-73
2023/03/30 09:08:30;;;;;;;18.25;7.47;;;12.60;87.40;;;;;;4975458;28;20059;-73
2023/03/30 09:11:00;;;;;;;12.18;6.28;;;13.30;85.50;;;;;;4985711;28;20108;-73
2023/03/30 09:13:38;;;;;;;12.93;6.63;;;14.40;81.40;;;;;;4981736;28;20054;-73
2023/03/30 09:16:19;;;;;;;16.13;6.07;;;15.10;78.00;;;;;;4982518;28;20046;-73
2023/03/30 09:18:55;;;;;;;10.88;5.22;;;15.20;76.80;;;;;;4963999;28;20469;-73
2023/03/30 09:21:26;;;;;;;10.57;5.80;;;15.10;75.40;;;;;;4978196;28;20050;-73
2023/03/30 09:23:57;;;;;;;11.82;5.50;;;15.10;77.30;;;;;;4982056;28;20046;-73
2023/03/30 09:26:38;;;;;;;15.90;5.85;;;15.10;76.60;;;;;;4982319;28;20050;-73
2023/03/30 09:29:30;;;;;;;9.05;5.50;;;15.30;77.70;;;;;;4982281;28;20489;-73
2023/03/30 09:32:08;;;;;;;11.63;5.05;;;15.60;75.70;;;;;;4981746;28;20052;-73
2023/03/30 09:34:42;;;;;;;9.15;5.28;;;15.70;74.00;;;;;;4982126;28;20052;-73
2023/03/30 09:37:12;;;;;;;11.10;5.07;;;15.60;74.30;;;;;;4977019;28;20092;-73
2023/03/30 09:39:40;;;;;;;13.68;5.60;;;15.60;73.20;;;;;;4982996;28;20058;-73
2023/03/30 09:42:12;;;;;;;13.43;5.60;;;15.40;73.80;;;;;;4979026;28;20057;-73
2023/03/30 09:45:00;;;;;;;16.77;7.50;;;15.00;73.70;;;;;;4981957;28;20850;-73
2023/03/30 09:47:32;;;;;;;7.90;4.65;;;14.70;73.90;;;;;;4982467;28;20495;-73
2023/03/30 09:50:01;;;;;;;11.35;5.35;;;14.60;74.80;;;;;;4963510;28;20054;-73
2023/03/30 09:52:31;;;;;;;10.80;5.10;;;14.40;74.80;;;;;;4984471;28;20482;-73
2023/03/30 09:55:17;;;;;;;12.48;6.22;;;14.40;75.50;;;;;;4985953;28;20142;-73
2023/03/30 09:57:44;;;;;;;13.57;6.00;;;14.40;75.80;;;;;;4985915;28;20050;-73
2023/03/30 10:00:30;;;;;;;9.90;5.22;;;14.30;77.30;;;;;;4986701;28;20054;-73
2023/03/30 10:02:58;;;;;;;;;;;14.50;76.30;;;;;;4993955;28;20485;-73
2023/03/30 10:05:26;;;;;;;11.95;4.97;;;14.60;75.90;;;;;;4985281;28;20409;-73
2023/03/30 10:07:56;;;;;;;12.40;5.57;;;14.80;76.10;;;;;;4985873;28;20057;-73
2023/03/30 10:10:29;;;;;;;13.75;5.03;;;14.90;74.60;;;;;;4985096;28;20058;-73
2023/03/30 10:13:14;;;;;;;14.15;5.45;;;14.90;75.00;;;;;;4985477;28;20062;-73
2023/03/30 10:15:44;;;;;;;10.23;4.68;;;15.00;75.70;;;;;;4965381;28;20585;-73
2023/03/30 10:18:18;;;;;;;11.18;5.03;;;15.00;76.10;;;;;;4985348;28;20050;-73
2023/03/30 10:21:14;;;;;;;16.30;5.57;;;14.90;75.30;;;;;;4976145;28;20456;-72
2023/03/30 10:23:43;;;;;;;12.25;5.30;;;14.60;77.20;;;;;;4982007;28;20058;-73
2023/03/30 10:26:18;;;;;;;14.95;4.97;;;14.50;77.40;;;;;;4986417;28;20055;-73
2023/03/30 10:29:03;;;;;;;14.38;6.22;;;14.40;80.90;;;;;;4975753;28;20494;-73
2023/03/30 10:31:35;;;;;;;11.32;5.32;;;14.10;85.50;;;;;;4985542;28;20455;-72
2023/03/30 10:34:04;;;;;;;10.20;5.20;;;14.00;85.20;;;;;;4986808;28;20074;-73
2023/03/30 10:36:37;;;;;;;19.05;5.90;;;13.70;87.10;;;;;;4983460;28;20062;-73
2023/03/30 10:39:13;;;;;;;11.63;5.80;;;13.50;86.80;;;;;;4982728;28;20065;-73
2023/03/30 10:41:41;;;;;;;14.43;5.20;;;13.40;89.20;;;;;;4985236;28;20054;-73
2023/03/30 10:44:45;;;;;;;12.15;5.90;;;13.30;88.70;;;;;;4983736;28;20105;-73
2023/03/30 10:47:47;;;;;;;15.05;5.70;;;13.30;90.20;;;;;;4984448;28;20054;-73
2023/03/30 10:50:23;;;;;;;16.60;6.30;;;13.30;89.80;;;;;;4963833;28;20054;-73
2023/03/30 10:53:10;;;;;;;15.93;6.13;;;13.50;90.40;;;;;;4992965;28;20060;-73
2023/03/30 10:56:11;;;;;;;15.95;6.15;;;13.70;88.10;;;;;;4993566;28;20050;-73
2023/03/30 10:58:56;;;;;;;13.23;5.85;;;13.90;86.80;;;;;;4984710;28;20050;-73
2023/03/30 11:01:44;;;;;;;14.93;6.03;;;14.40;89.20;;;;;;4969662;28;20527;-73
2023/03/30 11:04:43;;;;;;;12.05;4.95;;;16.00;84.60;;;;;;4974841;28;20305;-73
2023/03/30 11:07:54;;;;;;;10.35;4.57;;;18.60;79.20;;;;;;4979188;28;20077;-71
2023/03/30 11:10:36;;;;;;;8.35;3.90;;;21.40;68.20;;;;;;4948109;28;20054;-71
2023/03/30 11:13:24;;;;;;;7.75;4.22;;;22.50;59.30;;;;;;4983934;28;20142;-71
2023/03/30 11:15:57;;;;;;;9.07;3.80;;;20.50;62.50;;;;;;4991240;28;20767;-71
2023/03/30 11:19:07;;;;;;;10.45;3.70;;;19.30;68.50;;;;;;4975720;28;20050;-73
2023/03/30 11:21:49;;;;;;;9.10;3.97;;;20.30;64.10;;;;;;4981939;28;20050;-70
2023/03/30 11:24:25;;;;;;;10.52;3.63;;;20.90;65.20;;;;;;4978307;28;20065;-73
2023/03/30 11:27:25;;;;;;;9.55;3.40;;;20.60;63.30;;;;;;4983078;28;20514;-71
2023/03/30 11:30:04;;;;;;;10.80;4.03;;;19.70;65.10;;;;;;4983164;28;20046;-70
2023/03/30 11:32:37;;;;;;;52.67;8.18;;;19.60;66.90;;;;;;4983852;28;20057;-71
2023/03/30 11:35:25;;;;;;;18.58;4.88;;;19.30;66.60;;;;;;4986211;28;20050;-71
2023/03/30 11:38:12;;;;;;;11.85;4.45;;;19.00;70.00;;;;;;4967279;28;22079;-71
2023/03/30 11:40:45;;;;;;;7.30;3.83;;;20.70;67.70;;;;;;4984388;28;20888;-70
2023/03/30 11:43:17;;;;;;;8.98;3.50;;;21.70;63.00;;;;;;4984927;28;20046;-71
2023/03/30 11:45:59;;;;;;;11.10;3.88;;;22.00;62.30;;;;;;4984828;28;20050;-72
2023/03/30 11:48:48;;;;;;;10.80;4.93;;;21.60;60.90;;;;;;4983729;28;20109;-70
2023/03/30 11:51:34;;;;;;;6.90;3.83;;;21.30;61.10;;;;;;4983826;28;20061;-69
2023/03/30 11:54:32;;;;;;;9.65;4.18;;;20.80;62.10;;;;;;4986530;28;20050;-70
2023/03/30 11:57:28;;;;;;;14.55;4.25;;;20.10;62.10;;;;;;4976474;28;20716;-70
2023/03/30 12:00:33;;;;;;;10.82;4.50;;;19.50;64.20;;;;;;4968623;28;20157;-69
2023/03/30 12:03:41;;;;;;;9.57;4.07;;;20.10;62.10;;;;;;4960808;28;20054;-70
2023/03/30 12:06:37;;;;;;;11.88;3.80;;;19.70;60.80;;;;;;4954553;28;20054;-72
2023/03/30 12:09:25;;;;;;;12.80;4.25;;;18.90;63.70;;;;;;4946248;28;20460;-70
2023/03/30 12:12:12;;;;;;;12.98;4.25;;;18.50;64.70;;;;;;4980482;28;21904;-70
2023/03/30 12:14:48;;;;;;;7.70;3.42;;;18.10;65.50;;;;;;4982704;28;20097;-70
2023/03/30 12:17:43;;;;;;;15.10;3.70;;;17.60;66.00;;;;;;4975383;28;20056;-69
2023/03/30 12:20:19;;;;;;;9.63;3.33;;;17.00;67.80;;;;;;4967985;28;20052;-72
2023/03/30 12:22:58;;;;;;;9.77;3.75;;;16.70;69.60;;;;;;4985618;28;20557;-72
2023/03/30 12:25:42;;;;;;;14.15;4.38;;;16.40;69.30;;;;;;4998800;28;20429;-71
2023/03/30 12:28:13;;;;;;;19.90;8.75;;;16.10;70.00;;;;;;4982351;28;20061;-71
2023/03/30 12:30:56;;;;;;;15.15;3.90;;;15.90;71.80;;;;;;4988570;28;20050;-72
2023/03/30 12:33:32;;;;;;;9.85;4.43;;;15.40;77.10;;;;;;4986794;28;20050;-72
2023/03/30 12:36:02;;;;;;;8.35;3.72;;;15.10;80.20;;;;;;4991229;28;20057;-72
2023/03/30 12:38:56;;;;;;;8.80;3.30;;;15.00;80.40;;;;;;4982501;28;20046;-72
2023/03/30 12:41:25;;;;;;;7.47;3.20;;;15.00;81.70;;;;;;4981764;28;20938;-71
2023/03/30 12:44:16;;;;;;;5.57;2.40;;;15.20;82.40;;;;;;4984771;28;20158;-71
2023/03/30 12:46:57;;;;;;;8.48;3.95;;;15.90;79.30;;;;;;4974956;28;20065;-71
2023/03/30 12:49:48;;;;;;;4.47;2.55;;;16.40;77.60;;;;;;4983537;28;20058;-71
2023/03/30 12:53:13;;;;;;;7.30;2.53;;;17.50;74.90;;;;;;4981416;28;20054;-71
2023/03/30 12:56:03;;;;;;;8.30;2.00;;;19.30;68.70;;;;;;4960716;28;20042;-72
2023/03/30 12:59:16;;;;;;;4.45;2.20;;;20.90;64.00;;;;;;4963799;28;20054;-73
2023/03/30 13:02:04;;;;;;;5.85;2.08;;;22.30;58.60;;;;;;4971805;28;20065;-73
2023/03/30 13:04:36;;;;;;;3.78;1.80;;;22.80;57.10;;;;;;4986860;28;20050;-73
2023/03/30 13:07:06;;;;;;;4.72;1.90;;;23.10;58.60;;;;;;4984717;28;20134;-73
2023/03/30 13:09:56;;;;;;;12.32;2.13;;;23.60;55.60;;;;;;4983777;28;20104;-73
2023/03/30 13:12:26;;;;;;;15.25;2.97;;;24.40;55.20;;;;;;4973331;28;20057;-73
2023/03/30 13:15:17;;;;;;;5.40;2.38;;;24.30;53.80;;;;;;4999323;28;20046;-73